Time;durP1;ratioP1;P1;durP2;ratioP2;P2;SDS_P1;SDS_P2;PMS_P1;PMS_P2;Temp;Humidity;BMP_temperature;BMP_pressure;BME280_temperature;BME280_humidity;BME280_pressure;Samples;Min_cycle;Max_cycle;Signal;HPM_P1;HPM_P2
2022/06/29 00:01:37;;;;;;;5.90;4.80;;;20.50;85.60;;;;;;1793737;79;21056;-64
2022/06/29 00:04:06;;;;;;;7.37;4.97;;;20.40;85.60;;;;;;1793752;80;21024;-64
2022/06/29 00:06:36;;;;;;;16.10;5.60;;;20.40;85.80;;;;;;1793871;80;21134;-64
2022/06/29 00:09:06;;;;;;;8.33;5.03;;;20.30;86.10;;;;;;1793854;79;21166;-64
2022/06/29 00:11:35;;;;;;;8.75;4.33;;;20.30;86.30;;;;;;1793721;80;21120;-64
2022/06/29 00:14:04;;;;;;;10.08;5.10;;;20.30;86.30;;;;;;1793862;79;21047;-64
2022/06/29 00:16:33;;;;;;;7.03;5.00;;;20.30;86.30;;;;;;1793837;80;21470;-64
2022/06/29 00:19:03;;;;;;;9.60;4.80;;;20.30;86.40;;;;;;1793858;80;21122;-64
2022/06/29 00:21:33;;;;;;;6.60;4.60;;;20.30;86.30;;;;;;1793867;79;21122;-64
2022/06/29 00:24:03;;;;;;;6.80;5.15;;;20.30;86.50;;;;;;1793793;80;21088;-64
2022/06/29 00:26:32;;;;;;;8.55;5.10;;;20.30;86.60;;;;;;1793747;80;21048;-64
2022/06/29 00:29:02;;;;;;;8.75;4.05;;;20.30;86.60;;;;;;1793758;79;21036;-64
2022/06/29 00:31:32;;;;;;;7.08;4.58;;;20.40;86.60;;;;;;1793581;80;21064;-64
2022/06/29 00:34:01;;;;;;;5.60;4.70;;;20.40;86.60;;;;;;1793744;80;21044;-64
2022/06/29 00:36:31;;;;;;;9.25;4.35;;;20.40;86.60;;;;;;1793632;80;21067;-64
2022/06/29 00:39:00;;;;;;;9.78;5.03;;;20.40;86.60;;;;;;1793652;80;21044;-64
2022/06/29 00:41:30;;;;;;;12.25;5.00;;;20.40;86.60;;;;;;1793633;80;21112;-64
2022/06/29 00:43:59;;;;;;;8.75;4.55;;;20.40;86.80;;;;;;1793664;80;21081;-64
2022/06/29 00:46:29;;;;;;;12.03;5.45;;;20.40;86.80;;;;;;1793707;80;21032;-64
2022/06/29 00:48:58;;;;;;;11.48;4.90;;;20.50;86.80;;;;;;1793639;80;21114;-64
2022/06/29 00:51:29;;;;;;;7.75;5.22;;;20.50;86.60;;;;;;1793568;79;21176;-64
2022/06/29 00:54:00;;;;;;;9.08;5.25;;;20.50;86.50;;;;;;1793715;79;21040;-64
2022/06/29 00:56:31;;;;;;;10.65;5.33;;;20.40;86.60;;;;;;1793643;80;21110;-64
2022/06/29 00:59:03;;;;;;;8.55;5.72;;;20.40;86.50;;;;;;1793638;80;21025;-64
2022/06/29 01:01:34;;;;;;;12.23;5.20;;;20.40;86.50;;;;;;1793648;79;21156;-64
2022/06/29 01:04:03;;;;;;;7.78;6.72;;;20.30;86.60;;;;;;1793652;80;21072;-64
2022/06/29 01:06:33;;;;;;;8.15;5.25;;;20.30;86.80;;;;;;1793741;80;21032;-64
2022/06/29 01:09:04;;;;;;;10.68;6.33;;;20.30;86.80;;;;;;1793725;80;21052;-64
2022/06/29 01:11:34;;;;;;;8.88;5.22;;;20.30;86.80;;;;;;1793718;80;21044;-64
2022/06/29 01:14:04;;;;;;;7.00;5.60;;;20.30;86.80;;;;;;1793775;80;21080;-64
2022/06/29 01:16:33;;;;;;;7.50;5.72;;;20.30;87.00;;;;;;1793707;80;21028;-64
2022/06/29 01:19:02;;;;;;;13.98;6.05;;;20.30;87.00;;;;;;1793694;80;21048;-64
2022/06/29 01:21:34;;;;;;;8.58;5.50;;;20.30;87.00;;;;;;1793705;80;21065;-64
2022/06/29 01:24:04;;;;;;;10.88;6.28;;;20.30;87.00;;;;;;1793851;80;21483;-64
2022/06/29 01:26:33;;;;;;;9.85;5.90;;;20.30;87.00;;;;;;1793791;79;21052;-64
2022/06/29 01:29:03;;;;;;;9.83;5.92;;;20.30;87.00;;;;;;1793854;80;21051;-64
2022/06/29 01:31:33;;;;;;;7.58;6.05;;;20.30;87.00;;;;;;1793634;79;21056;-64
2022/06/29 01:34:02;;;;;;;11.63;6.53;;;20.30;87.00;;;;;;1793740;80;21040;-64
2022/06/29 01:36:32;;;;;;;8.25;5.62;;;20.30;86.90;;;;;;1793838;80;21119;-64
2022/06/29 01:39:01;;;;;;;11.10;5.72;;;20.30;86.80;;;;;;1793741;80;21118;-64
2022/06/29 01:41:31;;;;;;;11.33;6.20;;;20.30;86.90;;;;;;1793731;80;21087;-64
2022/06/29 01:44:01;;;;;;;7.62;5.62;;;20.30;86.90;;;;;;1793735;79;21106;-64
2022/06/29 01:46:30;;;;;;;9.38;6.35;;;20.20;86.90;;;;;;1793715;80;21068;-64
2022/06/29 01:49:00;;;;;;;10.80;5.90;;;20.20;87.10;;;;;;1793840;80;21048;-64
2022/06/29 01:51:29;;;;;;;6.62;5.70;;;20.20;87.10;;;;;;1792302;79;21052;-64
2022/06/29 01:53:59;;;;;;;12.15;5.80;;;20.20;87.10;;;;;;1780179;81;21048;-64
2022/06/29 01:56:29;;;;;;;7.42;5.87;;;20.20;87.10;;;;;;1780227;81;21162;-64
2022/06/29 01:58:58;;;;;;;9.38;5.53;;;20.20;87.10;;;;;;1780267;81;21107;-64
2022/06/29 02:01:28;;;;;;;9.38;5.50;;;20.10;87.00;;;;;;1780223;81;21061;-64
2022/06/29 02:03:57;;;;;;;8.83;5.87;;;20.20;87.30;;;;;;1780176;81;21127;-64
2022/06/29 02:06:27;;;;;;;7.35;6.03;;;20.10;87.30;;;;;;1780245;81;21107;-64
2022/06/29 02:08:56;;;;;;;7.70;5.70;;;20.20;87.40;;;;;;1780132;81;21091;-64
2022/06/29 02:11:26;;;;;;;11.00;5.92;;;20.20;87.40;;;;;;1780188;81;21115;-64
2022/06/29 02:13:55;;;;;;;8.50;5.47;;;20.20;87.30;;;;;;1780156;81;21115;-64
2022/06/29 02:16:25;;;;;;;6.50;5.42;;;20.20;87.20;;;;;;1780078;81;21119;-64
2022/06/29 02:18:56;;;;;;;10.85;5.90;;;20.30;87.30;;;;;;1780156;81;21060;-64
2022/06/29 02:21:26;;;;;;;12.23;7.17;;;20.30;87.40;;;;;;1780158;81;21127;-64
2022/06/29 02:23:55;;;;;;;10.43;5.78;;;20.30;87.10;;;;;;1780161;81;21127;-64
2022/06/29 02:26:25;;;;;;;8.10;5.83;;;20.30;87.20;;;;;;1780169;81;21103;-64
2022/06/29 02:28:54;;;;;;;13.25;6.37;;;20.40;87.20;;;;;;1780260;81;21127;-64
2022/06/29 02:36:59;;;;;;;10.43;6.22;;;20.40;86.90;;;;;;1780255;81;21053;-64
2022/06/29 02:39:28;;;;;;;11.93;5.72;;;20.40;86.60;;;;;;1780129;81;21033;-64
2022/06/29 02:41:58;;;;;;;10.90;5.55;;;20.40;86.30;;;;;;1780119;80;21182;-64
2022/06/29 02:44:27;;;;;;;13.43;5.92;;;20.30;86.50;;;;;;1780111;81;21065;-64
2022/06/29 02:46:57;;;;;;;13.05;5.10;;;20.40;86.70;;;;;;1780119;81;21048;-64
2022/06/29 02:49:27;;;;;;;11.55;5.22;;;20.40;86.30;;;;;;1780133;81;21112;-64
2022/06/29 02:51:56;;;;;;;8.73;5.35;;;20.50;86.50;;;;;;1780081;79;21161;-63
2022/06/29 02:54:25;;;;;;;11.30;5.72;;;20.50;86.30;;;;;;1782958;80;21459;-64
2022/06/29 02:56:55;;;;;;;7.47;4.87;;;20.50;86.10;;;;;;1782890;80;21045;-64
2022/06/29 02:59:25;;;;;;;7.20;5.33;;;20.50;86.00;;;;;;1782913;80;21048;-64
2022/06/29 03:01:54;;;;;;;11.38;5.55;;;20.50;86.00;;;;;;1782945;80;21028;-64
2022/06/29 03:04:24;;;;;;;7.90;5.42;;;20.50;85.90;;;;;;1782855;80;21049;-64
2022/06/29 03:06:53;;;;;;;7.90;5.55;;;20.50;85.80;;;;;;1782949;80;21025;-64
2022/06/29 03:09:23;;;;;;;6.72;5.75;;;20.40;86.00;;;;;;1782812;80;21052;-64
2022/06/29 03:11:52;;;;;;;8.40;6.30;;;20.40;86.20;;;;;;1782900;80;21045;-64
2022/06/29 03:14:22;;;;;;;14.65;6.97;;;20.40;86.30;;;;;;1782841;80;21140;-64
2022/06/29 03:16:51;;;;;;;11.90;7.85;;;20.50;86.40;;;;;;1782846;80;21049;-64
2022/06/29 03:19:21;;;;;;;18.60;8.65;;;20.50;86.30;;;;;;1782965;80;21072;-64
2022/06/29 03:21:50;;;;;;;11.68;6.62;;;20.60;86.20;;;;;;1782943;80;21073;-64
2022/06/29 03:24:20;;;;;;;13.30;7.10;;;20.60;85.70;;;;;;1782840;80;21068;-64
2022/06/29 03:26:49;;;;;;;8.85;7.30;;;20.60;85.90;;;;;;1782840;80;21106;-64
2022/06/29 03:29:19;;;;;;;15.18;6.85;;;20.60;86.10;;;;;;1782803;80;21119;-64
2022/06/29 03:31:48;;;;;;;18.12;7.33;;;20.60;86.30;;;;;;1782853;80;21139;-64
2022/06/29 03:34:18;;;;;;;10.43;7.22;;;20.70;86.40;;;;;;1782806;80;21114;-64
2022/06/29 03:36:47;;;;;;;14.50;8.05;;;20.80;86.00;;;;;;1782903;80;21155;-64
2022/06/29 03:39:16;;;;;;;14.28;7.47;;;20.80;85.50;;;;;;1782839;80;21049;-64
2022/06/29 03:41:46;;;;;;;13.53;8.13;;;20.80;85.50;;;;;;1782827;80;21041;-64
2022/06/29 03:44:15;;;;;;;9.08;6.47;;;20.90;85.50;;;;;;1782845;80;21048;-64
2022/06/29 03:46:44;;;;;;;14.45;6.90;;;20.90;85.40;;;;;;1782879;80;21048;-64
2022/06/29 03:49:14;;;;;;;13.20;7.85;;;21.00;85.50;;;;;;1782922;80;21118;-64
2022/06/29 03:51:44;;;;;;;10.53;8.35;;;21.10;85.50;;;;;;1782762;80;21028;-64
2022/06/29 03:54:13;;;;;;;12.15;7.60;;;21.10;85.20;;;;;;1780710;79;21651;-64
2022/06/29 03:56:43;;;;;;;11.97;7.65;;;21.10;85.20;;;;;;1780066;81;21044;-64
2022/06/29 03:59:12;;;;;;;17.05;8.80;;;21.20;84.90;;;;;;1780020;81;21052;-64
2022/06/29 04:01:42;;;;;;;16.12;9.05;;;21.30;84.90;;;;;;1780080;79;21049;-64
2022/06/29 04:04:12;;;;;;;17.35;10.15;;;21.40;84.90;;;;;;1780029;81;21048;-64
2022/06/29 04:06:41;;;;;;;22.30;11.95;;;21.50;84.80;;;;;;1780079;81;21069;-64
2022/06/29 04:09:10;;;;;;;14.45;9.43;;;21.50;84.60;;;;;;1780042;81;21044;-64
2022/06/29 04:11:49;;;;;;;25.88;14.45;;;21.60;84.50;;;;;;1780117;81;21021;-63
2022/06/29 04:14:19;;;;;;;19.12;10.30;;;21.70;84.40;;;;;;1780121;81;21208;-65
2022/06/29 04:16:48;;;;;;;18.55;11.10;;;21.80;84.10;;;;;;1780086;81;21081;-65
2022/06/29 04:19:18;;;;;;;20.75;11.50;;;21.80;84.10;;;;;;1780050;81;21080;-65
2022/06/29 04:21:48;;;;;;;22.35;11.97;;;21.90;84.00;;;;;;1780021;81;21065;-65
2022/06/29 04:24:18;;;;;;;22.20;12.37;;;22.00;83.70;;;;;;1780183;81;21166;-65
2022/06/29 04:26:48;;;;;;;22.93;12.85;;;22.00;83.40;;;;;;1780050;81;21148;-65
2022/06/29 04:29:17;;;;;;;27.45;13.95;;;22.10;83.40;;;;;;1780138;81;21198;-65
2022/06/29 04:31:47;;;;;;;22.70;11.80;;;22.10;83.20;;;;;;1780048;81;21553;-65
2022/06/29 04:34:16;;;;;;;26.05;14.23;;;22.20;83.40;;;;;;1780102;81;21048;-65
2022/06/29 04:36:46;;;;;;;22.32;12.13;;;22.30;83.20;;;;;;1780003;80;21115;-65
2022/06/29 04:39:15;;;;;;;24.92;11.95;;;22.40;83.10;;;;;;1780034;81;21057;-65
2022/06/29 04:41:45;;;;;;;20.90;11.48;;;22.50;82.90;;;;;;1780135;79;21048;-65
2022/06/29 04:44:14;;;;;;;20.57;10.75;;;22.60;82.70;;;;;;1780249;81;21039;-66
2022/06/29 04:46:44;;;;;;;21.90;11.78;;;22.80;82.30;;;;;;1780169;81;21052;-65
2022/06/29 04:49:13;;;;;;;20.12;10.72;;;22.80;81.90;;;;;;1780178;79;21049;-65
2022/06/29 04:51:43;;;;;;;20.45;11.68;;;22.90;81.90;;;;;;1780093;80;21048;-65
2022/06/29 04:54:13;;;;;;;20.68;11.78;;;23.00;81.40;;;;;;1781645;78;21151;-65
2022/06/29 04:56:43;;;;;;;17.10;10.93;;;23.00;81.10;;;;;;1783205;80;21088;-65
2022/06/29 04:59:12;;;;;;;19.25;10.25;;;23.10;80.70;;;;;;1783124;80;21105;-65
2022/06/29 05:01:41;;;;;;;24.07;12.03;;;23.10;80.50;;;;;;1783215;80;21135;-65
2022/06/29 05:04:10;;;;;;;36.58;14.68;;;23.20;80.20;;;;;;1783111;80;21064;-65
2022/06/29 05:06:40;;;;;;;31.82;15.13;;;23.20;79.90;;;;;;1783165;80;21226;-65
2022/06/29 05:09:09;;;;;;;31.95;14.55;;;23.20;79.90;;;;;;1783298;80;21063;-65
2022/06/29 05:11:39;;;;;;;27.50;14.45;;;23.30;79.70;;;;;;1783134;80;21105;-65
2022/06/29 05:14:10;;;;;;;44.83;18.30;;;23.40;79.50;;;;;;1783142;80;21081;-65
2022/06/29 05:16:39;;;;;;;37.85;17.57;;;23.50;79.60;;;;;;1783220;80;21136;-65
2022/06/29 05:19:19;;;;;;;;;;;;;;;;;;;;;
2022/06/29 05:21:59;;;;;;;29.07;16.05;;;23.60;79.40;;;;;;1833123;78;21122;-65
2022/06/29 05:24:28;;;;;;;23.75;13.10;;;23.70;79.50;;;;;;1833018;77;21026;-65
2022/06/29 05:26:58;;;;;;;23.05;12.45;;;23.70;79.00;;;;;;1832927;77;21061;-65
2022/06/29 05:29:27;;;;;;;27.50;12.65;;;23.70;78.70;;;;;;1833052;78;21074;-65
2022/06/29 05:31:57;;;;;;;21.30;10.00;;;23.70;78.70;;;;;;1832879;77;21186;-65
2022/06/29 05:34:26;;;;;;;26.07;13.00;;;23.60;78.50;;;;;;1832897;78;21033;-65
2022/06/29 05:36:56;;;;;;;25.00;12.50;;;23.70;78.10;;;;;;1832912;78;21116;-65
2022/06/29 05:39:26;;;;;;;23.80;12.35;;;23.70;78.20;;;;;;1832982;78;21116;-65
2022/06/29 05:41:55;;;;;;;25.37;12.47;;;23.80;77.80;;;;;;1832833;78;21029;-65
2022/06/29 05:44:25;;;;;;;27.58;13.03;;;23.90;78.00;;;;;;1832957;78;21105;-65
2022/06/29 05:46:54;;;;;;;24.60;12.45;;;24.00;77.80;;;;;;1832911;78;21101;-65
2022/06/29 05:49:24;;;;;;;23.75;11.85;;;24.00;77.60;;;;;;1833055;78;21124;-65
2022/06/29 05:51:53;;;;;;;18.37;9.43;;;24.20;78.30;;;;;;1832922;77;21132;-65
2022/06/29 05:54:22;;;;;;;20.95;11.48;;;24.30;77.60;;;;;;1810253;78;21195;-65
2022/06/29 05:56:52;;;;;;;17.52;9.95;;;24.40;77.00;;;;;;1801476;80;21140;-65
2022/06/29 05:59:21;;;;;;;16.27;9.05;;;24.50;76.50;;;;;;1801356;80;21054;-65
2022/06/29 06:01:51;;;;;;;16.17;9.75;;;24.50;76.70;;;;;;1801442;79;21143;-65
2022/06/29 06:04:21;;;;;;;15.72;7.95;;;24.60;77.00;;;;;;1801368;79;21111;-65
2022/06/29 06:06:50;;;;;;;15.43;8.05;;;24.70;76.60;;;;;;1801380;79;21176;-65
2022/06/29 06:09:24;;;;;;;11.75;6.70;;;24.70;76.20;;;;;;1801379;79;21116;-65
2022/06/29 06:11:51;;;;;;;11.33;6.10;;;24.70;75.70;;;;;;1801460;79;21090;-65
2022/06/29 06:14:20;;;;;;;6.17;5.28;;;24.70;75.70;;;;;;1801438;79;21058;-65
2022/06/29 06:16:49;;;;;;;9.53;4.92;;;24.70;75.20;;;;;;1801409;79;21053;-65
2022/06/29 06:19:19;;;;;;;7.00;4.95;;;24.70;75.10;;;;;;1801444;79;21137;-65
2022/06/29 06:21:48;;;;;;;5.67;4.42;;;24.70;75.60;;;;;;1820900;78;21139;-65
2022/06/29 06:24:18;;;;;;;4.97;4.42;;;24.80;75.60;;;;;;1828309;78;21142;-65
2022/06/29 06:26:47;;;;;;;5.60;4.15;;;25.00;75.40;;;;;;1828261;78;21044;-65
2022/06/29 06:29:17;;;;;;;7.55;3.98;;;25.00;74.00;;;;;;1828526;77;21048;-65
2022/06/29 06:31:47;;;;;;;6.45;4.28;;;25.00;73.60;;;;;;1828296;77;21106;-64
2022/06/29 06:34:17;;;;;;;3.77;3.37;;;25.10;73.60;;;;;;1828344;77;21056;-64
2022/06/29 06:36:46;;;;;;;9.90;4.00;;;25.20;73.40;;;;;;1828371;78;21134;-64
2022/06/29 06:39:15;;;;;;;5.78;4.50;;;25.30;73.10;;;;;;1828327;78;21083;-64
2022/06/29 06:41:45;;;;;;;5.17;3.50;;;25.30;72.70;;;;;;1828340;77;21076;-65
2022/06/29 06:44:14;;;;;;;6.83;4.60;;;25.40;72.30;;;;;;1828344;78;21119;-65
2022/06/29 06:46:49;;;;;;;11.38;4.22;;;25.50;72.20;;;;;;1828255;78;21158;-64
2022/06/29 06:49:15;;;;;;;8.40;4.17;;;25.50;72.40;;;;;;1827078;78;21095;-65
2022/06/29 06:51:45;;;;;;;21.95;5.53;;;25.60;72.50;;;;;;1828139;77;21169;-65
2022/06/29 06:54:15;;;;;;;5.92;3.70;;;25.70;72.50;;;;;;1828332;78;21052;-64
2022/06/29 06:56:44;;;;;;;6.42;4.25;;;25.90;72.30;;;;;;1828325;77;21165;-65
2022/06/29 06:59:13;;;;;;;6.03;3.58;;;26.00;71.90;;;;;;1828308;77;21053;-65
2022/06/29 07:01:43;;;;;;;8.13;4.28;;;25.90;71.00;;;;;;1828466;77;21483;-65
2022/06/29 07:04:12;;;;;;;5.83;3.62;;;25.90;71.50;;;;;;1828141;78;21127;-64
2022/06/29 07:06:42;;;;;;;8.58;3.50;;;25.90;71.90;;;;;;1828326;77;21511;-65
2022/06/29 07:09:12;;;;;;;8.80;3.52;;;26.00;72.10;;;;;;1828253;77;21028;-65
2022/06/29 07:11:41;;;;;;;5.15;3.20;;;26.10;71.70;;;;;;1828331;77;21052;-65
2022/06/29 07:14:11;;;;;;;6.17;3.70;;;26.20;71.80;;;;;;1828305;78;21060;-66
2022/06/29 07:16:40;;;;;;;5.90;3.92;;;26.30;70.70;;;;;;1828250;77;21130;-66
2022/06/29 07:19:10;;;;;;;5.42;3.17;;;26.30;70.10;;;;;;1828369;78;21115;-66
2022/06/29 07:21:39;;;;;;;7.37;3.70;;;26.30;70.40;;;;;;1828076;77;21052;-65
2022/06/29 07:24:09;;;;;;;7.22;4.08;;;26.30;70.60;;;;;;1828297;77;21111;-65
2022/06/29 07:26:38;;;;;;;4.33;3.10;;;26.40;70.50;;;;;;1828312;78;21126;-65
2022/06/29 07:29:07;;;;;;;3.85;3.45;;;26.50;69.90;;;;;;1828238;78;21088;-65
2022/06/29 07:31:37;;;;;;;5.85;3.17;;;26.50;70.40;;;;;;1828315;78;21110;-65
2022/06/29 07:34:07;;;;;;;5.75;3.60;;;26.50;70.00;;;;;;1828135;77;21142;-66
2022/06/29 07:36:36;;;;;;;17.73;4.08;;;26.50;69.70;;;;;;1828206;78;21122;-63
2022/06/29 07:39:06;;;;;;;10.98;3.70;;;26.60;70.00;;;;;;1826877;78;21151;-65
2022/06/29 07:41:41;;;;;;;7.78;3.47;;;26.60;70.40;;;;;;1827483;78;21095;-63
2022/06/29 07:44:07;;;;;;;6.60;3.37;;;26.70;70.00;;;;;;1826360;78;21143;-63
2022/06/29 07:46:37;;;;;;;19.00;3.80;;;26.80;70.20;;;;;;1827465;77;21056;-69
2022/06/29 07:49:06;;;;;;;5.75;3.22;;;26.80;69.80;;;;;;1827537;78;21162;-69
2022/06/29 07:51:36;;;;;;;15.88;5.47;;;26.90;69.80;;;;;;1827643;77;21080;-67
2022/06/29 07:54:05;;;;;;;4.28;3.35;;;26.90;68.50;;;;;;1827512;78;21096;-69
2022/06/29 07:56:36;;;;;;;5.35;3.02;;;26.90;68.30;;;;;;1827851;78;21459;-67
2022/06/29 07:59:05;;;;;;;8.93;3.70;;;26.80;68.50;;;;;;1827771;78;21185;-67
2022/06/29 08:01:35;;;;;;;9.00;3.80;;;26.80;68.50;;;;;;1827418;78;21044;-69
2022/06/29 08:04:04;;;;;;;6.53;2.65;;;26.80;68.80;;;;;;1817367;78;21212;-68
2022/06/29 08:06:34;;;;;;;4.40;3.00;;;26.90;68.00;;;;;;1815419;79;21045;-64
2022/06/29 08:09:05;;;;;;;3.45;2.77;;;26.90;68.10;;;;;;1815325;79;21018;-64
2022/06/29 08:11:34;;;;;;;6.50;2.67;;;27.00;67.50;;;;;;1815522;79;21053;-67
2022/06/29 08:14:04;;;;;;;4.03;3.10;;;27.10;67.30;;;;;;1815569;79;21123;-62
2022/06/29 08:16:33;;;;;;;4.90;2.50;;;27.10;67.00;;;;;;1815518;79;21033;-63
2022/06/29 08:19:03;;;;;;;5.62;2.75;;;27.30;66.80;;;;;;1815579;79;21174;-64
2022/06/29 08:21:33;;;;;;;4.78;2.62;;;27.40;66.20;;;;;;1816550;78;21158;-63
2022/06/29 08:24:02;;;;;;;7.28;3.22;;;27.50;65.30;;;;;;1829967;78;21143;-64
2022/06/29 08:26:31;;;;;;;7.58;3.00;;;27.50;65.00;;;;;;1830033;78;21095;-67
2022/06/29 08:29:01;;;;;;;4.08;2.60;;;27.60;64.50;;;;;;1829991;78;21100;-65
2022/06/29 08:31:30;;;;;;;7.15;2.98;;;27.60;64.90;;;;;;1829773;78;21044;-64
2022/06/29 08:34:02;;;;;;;7.75;3.02;;;27.70;64.50;;;;;;1830048;78;21096;-69
2022/06/29 08:36:31;;;;;;;6.55;2.65;;;27.80;63.60;;;;;;1829592;78;21072;-68
2022/06/29 08:39:01;;;;;;;6.12;2.62;;;27.80;63.70;;;;;;1829762;78;21049;-73
2022/06/29 08:41:32;;;;;;;6.45;2.92;;;27.80;62.80;;;;;;1829946;78;21052;-64
2022/06/29 08:44:04;;;;;;;5.28;3.58;;;27.80;62.20;;;;;;1829755;78;21147;-71
2022/06/29 08:46:34;;;;;;;3.92;3.08;;;27.80;62.50;;;;;;1829955;78;21530;-62
2022/06/29 08:49:03;;;;;;;8.13;2.90;;;27.90;63.30;;;;;;1829997;78;21466;-65
2022/06/29 08:51:34;;;;;;;6.53;3.00;;;28.00;63.00;;;;;;1829915;78;21053;-66
2022/06/29 08:54:09;;;;;;;5.65;2.90;;;28.10;63.50;;;;;;1829870;78;21096;-68
2022/06/29 08:56:37;;;;;;;4.67;2.87;;;28.20;63.00;;;;;;1809702;78;21107;-65
2022/06/29 08:59:07;;;;;;;7.58;2.70;;;28.30;61.80;;;;;;1842144;77;21181;-67
2022/06/29 09:01:38;;;;;;;6.42;2.30;;;28.30;61.80;;;;;;1842015;77;21162;-66
2022/06/29 09:04:08;;;;;;;7.40;2.45;;;28.40;60.60;;;;;;1808489;79;21044;-63
2022/06/29 09:06:38;;;;;;;4.95;2.20;;;28.40;60.50;;;;;;1811606;79;21037;-71
2022/06/29 09:09:07;;;;;;;8.33;2.98;;;28.40;59.60;;;;;;1862278;77;21062;-68
2022/06/29 09:11:39;;;;;;;6.50;2.87;;;28.40;59.70;;;;;;1862337;77;21054;-66
2022/06/29 09:14:19;;;;;;;8.53;2.77;;;28.50;59.70;;;;;;1862547;77;21096;-67
2022/06/29 09:17:00;;;;;;;5.70;2.70;;;28.50;59.90;;;;;;1862287;77;21179;-66
2022/06/29 09:19:32;;;;;;;4.22;2.50;;;28.60;59.80;;;;;;1862489;77;21114;-66
2022/06/29 09:22:03;;;;;;;8.65;2.25;;;28.60;59.50;;;;;;1861576;77;21062;-66
2022/06/29 09:24:35;;;;;;;6.70;2.40;;;28.70;59.00;;;;;;1847586;77;21438;-69
2022/06/29 09:27:07;;;;;;;4.70;2.02;;;28.80;58.20;;;;;;1847511;78;21094;-70
2022/06/29 09:29:43;;;;;;;3.20;2.25;;;28.80;58.80;;;;;;1847470;78;21066;-70
2022/06/29 09:32:10;;;;;;;4.83;2.00;;;28.90;59.00;;;;;;1845884;78;22223;-70
2022/06/29 09:34:42;;;;;;;2.90;1.98;;;29.00;57.30;;;;;;1847584;78;21050;-70
2022/06/29 09:37:16;;;;;;;10.23;2.05;;;29.10;56.50;;;;;;1847594;78;21042;-64
2022/06/29 09:39:53;;;;;;;2.12;1.75;;;29.10;55.80;;;;;;1847718;78;21027;-68
2022/06/29 09:42:24;;;;;;;5.87;2.02;;;29.10;54.30;;;;;;1847558;78;21124;-68
2022/06/29 09:44:54;;;;;;;4.50;1.87;;;29.10;53.90;;;;;;1847520;78;21090;-66
2022/06/29 09:47:24;;;;;;;9.00;2.25;;;29.10;54.40;;;;;;1847663;78;21137;-76
2022/06/29 09:50:01;;;;;;;3.83;2.15;;;29.20;55.00;;;;;;1847687;78;21050;-71
2022/06/29 09:52:27;;;;;;;7.17;1.80;;;29.30;54.60;;;;;;1846483;78;21114;-70
2022/06/29 09:54:58;;;;;;;3.92;2.17;;;29.40;55.00;;;;;;1847629;78;21086;-70
2022/06/29 09:57:30;;;;;;;9.23;2.08;;;29.40;55.50;;;;;;1847536;78;21126;-66
2022/06/29 10:02:58;;;;;;;6.80;2.20;;;29.60;54.30;;;;;;1847571;78;21128;-65
2022/06/29 10:05:54;;;;;;;2.65;1.60;;;29.60;54.00;;;;;;1847519;78;21031;-71
2022/06/29 10:07:58;;;;;;;3.77;2.15;;;29.70;53.80;;;;;;1842805;78;21071;-67
2022/06/29 10:10:28;;;;;;;2.47;1.70;;;29.80;54.50;;;;;;1847590;76;21075;-68
2022/06/29 10:16:31;;;;;;;7.95;3.80;;;30.00;53.40;;;;;;1847736;78;21117;-64
2022/06/29 10:19:25;;;;;;;6.40;2.00;;;30.10;53.00;;;;;;1847704;78;21122;-65
2022/06/29 10:21:57;;;;;;;2.83;1.90;;;30.10;52.40;;;;;;1847668;78;21532;-68
2022/06/29 10:24:28;;;;;;;2.37;1.70;;;30.10;52.80;;;;;;1847607;76;21568;-65
2022/06/29 10:26:57;;;;;;;4.25;1.67;;;30.20;52.30;;;;;;1847580;77;21170;-65
2022/06/29 10:29:28;;;;;;;3.75;1.98;;;30.10;51.00;;;;;;1847380;78;21102;-66
2022/06/29 10:32:05;;;;;;;4.20;1.87;;;30.00;51.40;;;;;;1847541;78;21109;-65
2022/06/29 10:34:41;;;;;;;3.60;1.82;;;29.90;52.10;;;;;;1846128;78;21547;-68
2022/06/29 10:37:14;;;;;;;3.90;1.80;;;29.90;52.60;;;;;;1846348;78;21118;-68
2022/06/29 10:39:49;;;;;;;2.72;2.17;;;29.90;53.00;;;;;;1847476;78;21054;-68
2022/06/29 10:45:24;;;;;;;5.47;1.60;;;30.00;51.90;;;;;;1847630;78;20140;-67
2022/06/29 10:47:58;;;;;;;6.53;5.33;;;30.10;51.80;;;;;;1847526;78;21054;-67
2022/06/29 10:50:30;;;;;;;7.12;2.58;;;30.20;51.30;;;;;;1847392;78;21066;-63
2022/06/29 10:53:11;;;;;;;3.50;2.00;;;30.20;51.30;;;;;;1847531;78;21086;-70
2022/06/29 10:55:43;;;;;;;4.37;2.10;;;30.30;50.30;;;;;;1847483;77;21121;-65
2022/06/29 10:58:13;;;;;;;3.05;1.65;;;30.40;49.90;;;;;;1847115;78;21482;-71
2022/06/29 11:00:44;;;;;;;3.25;1.65;;;30.40;49.50;;;;;;1847498;76;21039;-65
2022/06/29 11:03:19;;;;;;;2.08;1.40;;;30.40;49.30;;;;;;1847550;78;21043;-71
2022/06/29 11:16:53;;;;;;;4.45;2.25;;;30.20;48.10;;;;;;1826114;78;21054;-71
2022/06/29 11:19:37;;;;;;;7.22;1.47;;;30.20;48.50;;;;;;1847421;78;21039;-67
2022/06/29 11:22:15;;;;;;;3.27;1.80;;;30.20;48.60;;;;;;1847978;78;21105;-68
2022/06/29 11:24:52;;;;;;;5.17;1.70;;;30.30;47.80;;;;;;1850031;76;21774;-68
2022/06/29 11:27:35;;;;;;;5.35;1.70;;;30.30;47.70;;;;;;1851132;77;21051;-64
2022/06/29 11:30:09;;;;;;;2.00;1.40;;;30.40;47.80;;;;;;1851216;77;21732;-66
2022/06/29 11:32:43;;;;;;;7.58;2.27;;;30.50;47.60;;;;;;1851279;77;21188;-65
2022/06/29 11:35:15;;;;;;;2.62;1.80;;;30.50;47.80;;;;;;1851153;77;21039;-72
2022/06/29 11:37:50;;;;;;;5.00;1.52;;;30.50;47.40;;;;;;1851179;77;21112;-65
2022/06/29 11:40:21;;;;;;;5.47;2.02;;;30.50;47.00;;;;;;1851093;77;21626;-69
2022/06/29 11:43:05;;;;;;;6.62;2.70;;;30.50;47.60;;;;;;1851072;77;21046;-72
2022/06/29 11:45:56;;;;;;;5.20;2.02;;;30.60;48.00;;;;;;1851407;77;21063;-72
2022/06/29 11:48:27;;;;;;;8.30;3.00;;;30.70;48.30;;;;;;1851050;77;21133;-73
2022/06/29 11:50:59;;;;;;;10.50;3.20;;;30.80;47.80;;;;;;1850907;77;21082;-71
2022/06/29 11:53:40;;;;;;;5.03;2.70;;;30.90;47.30;;;;;;1851099;77;21156;-73
2022/06/29 11:56:17;;;;;;;5.58;2.37;;;31.00;47.20;;;;;;1850902;77;21022;-69
2022/06/29 11:58:52;;;;;;;6.33;3.15;;;30.90;47.10;;;;;;1851133;77;21164;-62
2022/06/29 12:01:22;;;;;;;6.85;1.77;;;30.90;47.40;;;;;;1851150;77;21054;-63
2022/06/29 12:03:56;;;;;;;8.00;6.42;;;31.00;47.70;;;;;;1851040;77;21121;-61
2022/06/29 12:06:28;;;;;;;1.75;1.55;;;31.00;47.90;;;;;;1851396;77;21090;-64
2022/06/29 12:08:57;;;;;;;6.47;1.90;;;31.00;47.30;;;;;;1851050;77;21082;-64
2022/06/29 12:11:27;;;;;;;4.47;1.65;;;31.00;47.50;;;;;;1850926;77;21171;-68
2022/06/29 12:13:56;;;;;;;4.05;2.05;;;31.10;47.80;;;;;;1851316;77;21477;-62
2022/06/29 12:16:25;;;;;;;6.33;1.95;;;31.10;48.60;;;;;;1851156;77;21046;-66
2022/06/29 12:18:55;;;;;;;6.87;1.72;;;31.20;47.30;;;;;;1850979;77;21109;-66
2022/06/29 12:21:26;;;;;;;3.67;1.70;;;31.20;47.50;;;;;;1851090;77;21086;-63
2022/06/29 12:23:55;;;;;;;4.20;1.57;;;31.30;46.30;;;;;;1851051;77;21470;-64
2022/06/29 12:26:25;;;;;;;5.15;1.80;;;31.30;46.60;;;;;;1851113;77;21042;-65
2022/06/29 12:28:55;;;;;;;3.58;1.77;;;31.30;47.00;;;;;;1851151;77;21051;-69
2022/06/29 12:31:25;;;;;;;6.47;2.22;;;31.30;46.10;;;;;;1851171;77;21116;-64
2022/06/29 12:33:54;;;;;;;5.20;2.17;;;31.30;46.50;;;;;;1850846;77;21105;-68
2022/06/29 12:36:24;;;;;;;6.30;1.60;;;31.20;46.80;;;;;;1850972;77;21046;-65
2022/06/29 12:38:53;;;;;;;4.90;1.82;;;31.20;46.60;;;;;;1850974;77;21098;-64
2022/06/29 12:41:24;;;;;;;2.47;1.70;;;31.30;47.00;;;;;;1851084;77;21031;-66
2022/06/29 12:43:53;;;;;;;4.83;1.50;;;31.30;47.00;;;;;;1851056;77;21050;-68
2022/06/29 12:46:22;;;;;;;5.42;1.60;;;31.20;46.60;;;;;;1855193;77;21110;-64
2022/06/29 12:48:52;;;;;;;4.92;2.35;;;31.20;45.40;;;;;;1863196;76;21016;-68
2022/06/29 12:51:21;;;;;;;3.58;1.87;;;31.20;45.50;;;;;;1863362;76;21040;-67
2022/06/29 12:53:51;;;;;;;3.30;1.82;;;31.10;46.00;;;;;;1863331;76;21161;-65
2022/06/29 12:56:20;;;;;;;5.75;1.92;;;31.10;45.80;;;;;;1863237;77;21108;-63
2022/06/29 12:58:50;;;;;;;5.20;1.52;;;31.10;46.30;;;;;;1863277;76;21068;-65
2022/06/29 13:01:20;;;;;;;4.10;2.10;;;31.10;46.20;;;;;;1863351;76;21079;-66
2022/06/29 13:03:49;;;;;;;6.40;1.95;;;31.20;46.20;;;;;;1863281;76;21103;-66
2022/06/29 13:06:18;;;;;;;7.62;2.17;;;31.20;46.20;;;;;;1863449;77;21028;-66
2022/06/29 13:08:48;;;;;;;8.45;2.00;;;31.20;45.70;;;;;;1863423;77;21095;-64
2022/06/29 13:11:18;;;;;;;5.30;2.00;;;31.30;45.70;;;;;;1863218;76;21051;-66
2022/06/29 13:13:47;;;;;;;2.15;1.87;;;31.30;46.50;;;;;;1863468;76;21157;-71
2022/06/29 13:16:17;;;;;;;4.83;1.60;;;31.30;46.00;;;;;;1863449;76;21060;-69
2022/06/29 13:18:46;;;;;;;7.12;2.60;;;31.40;46.40;;;;;;1863024;76;21092;-64
2022/06/29 13:21:15;;;;;;;3.77;2.20;;;31.30;45.90;;;;;;1863385;77;21040;-64
2022/06/29 13:23:44;;;;;;;9.00;2.30;;;31.40;46.30;;;;;;1863345;77;21158;-63
2022/06/29 13:26:14;;;;;;;4.85;2.00;;;31.40;46.50;;;;;;1860467;76;21064;-65